Time;durP1;ratioP1;P1;durP2;ratioP2;P2;SDS_P1;SDS_P2;PMS_P1;PMS_P2;Temp;Humidity;BMP_temperature;BMP_pressure;BME280_temperature;BME280_humidity;BME280_pressure;Samples;Min_cycle;Max_cycle;Signal;HPM_P1;HPM_P2
2022/09/21 00:09:41;;;;;;;0.50;0.50;;;;;;;11.44;64.98;100833.37;18418945;32;20117;-57
2022/09/21 00:19:44;;;;;;;0.60;0.60;;;;;;;11.17;65.64;100835.91;18433012;32;20100;-57
2022/09/21 00:29:48;;;;;;;0.40;0.40;;;;;;;11.20;64.78;100848.13;18432070;32;20453;-57
2022/09/21 00:39:52;;;;;;;0.50;0.50;;;;;;;10.82;65.64;100848.00;18432214;32;20100;-57
2022/09/21 00:49:57;;;;;;;0.50;0.50;;;;;;;10.82;64.69;100853.22;18431807;32;20105;-57
2022/09/21 01:00:04;;;;;;;0.40;0.40;;;;;;;10.75;64.43;100842.78;18431582;32;20157;-57
2022/09/21 01:10:11;;;;;;;0.40;0.40;;;;;;;10.54;64.99;100847.88;18431341;32;20112;-57
2022/09/21 01:20:40;;;;;;;0.32;0.32;;;;;;;10.39;66.10;100859.09;18430661;32;20154;-57
2022/09/21 01:30:45;;;;;;;0.50;0.50;;;;;;;10.07;67.63;100862.38;18429814;32;20107;-57
2022/09/21 01:40:52;;;;;;;0.50;0.50;;;;;;;10.27;67.32;100859.88;18433747;32;20081;-57
2022/09/21 01:50:58;;;;;;;0.40;0.40;;;;;;;10.50;67.02;100863.53;18422628;32;20179;-57
2022/09/21 02:01:02;;;;;;;0.35;0.35;;;;;;;10.45;66.79;100878.31;18436899;32;20536;-57
2022/09/21 02:11:07;;;;;;;0.50;0.50;;;;;;;10.46;66.82;100874.81;18436371;32;20105;-57
2022/09/21 02:21:15;;;;;;;0.50;0.50;;;;;;;10.46;67.22;100869.59;18436153;32;20108;-57
2022/09/21 02:31:25;;;;;;;0.60;0.60;;;;;;;10.43;66.44;100873.06;18435545;32;20149;-57
2022/09/21 02:41:33;;;;;;;0.47;0.47;;;;;;;10.27;66.38;100874.69;18435260;32;20097;-57
2022/09/21 02:51:41;;;;;;;0.55;0.55;;;;;;;10.19;65.91;100889.41;18435561;32;20457;-57
2022/09/21 03:01:45;;;;;;;0.50;0.50;;;;;;;10.01;65.99;100893.59;18435819;32;20112;-57
2022/09/21 03:11:49;;;;;;;0.50;0.50;;;;;;;10.04;65.93;100898.84;18446738;32;20097;-57
2022/09/21 03:21:53;;;;;;;0.50;0.50;;;;;;;9.90;66.61;100901.34;18495776;32;20085;-57
2022/09/21 03:31:57;;;;;;;0.60;0.60;;;;;;;9.85;65.91;100909.13;18496987;32;20089;-57
2022/09/21 03:42:01;;;;;;;0.70;0.70;;;;;;;9.78;65.85;100912.56;18498180;32;20100;-57
2022/09/21 03:52:05;;;;;;;0.50;0.50;;;;;;;9.67;66.17;100919.38;18495808;32;20101;-57
2022/09/21 04:02:08;;;;;;;0.40;0.40;;;;;;;9.63;65.81;100915.00;18496872;32;20092;-57
2022/09/21 04:12:13;;;;;;;0.40;0.40;;;;;;;9.55;65.72;100922.75;18497836;32;20338;-57
2022/09/21 04:22:17;;;;;;;0.57;0.57;;;;;;;9.40;66.26;100928.69;18497609;32;20112;-57
2022/09/21 04:32:22;;;;;;;0.40;0.40;;;;;;;9.42;66.60;100934.78;18498088;32;20476;-57
2022/09/21 04:42:26;;;;;;;0.50;0.50;;;;;;;9.50;66.45;100948.75;18497589;32;20115;-57
2022/09/21 04:52:30;;;;;;;0.40;0.40;;;;;;;9.42;66.25;100950.41;18496082;32;20122;-57
2022/09/21 05:02:33;;;;;;;0.30;0.30;;;;;;;9.46;67.28;100951.31;18495862;32;20093;-57
2022/09/21 05:12:38;;;;;;;0.50;0.50;;;;;;;9.53;67.44;100972.25;18431683;32;20097;-57
2022/09/21 05:22:43;;;;;;;0.32;0.32;;;;;;;9.77;67.26;100957.75;18428857;32;20116;-57
2022/09/21 05:32:52;;;;;;;0.47;0.47;;;;;;;9.98;68.17;100956.19;18430596;32;20345;-57
2022/09/21 05:42:55;;;;;;;0.50;0.50;;;;;;;10.53;68.92;100967.97;18430458;32;20141;-57
2022/09/21 05:53:06;;;;;;;0.30;0.30;;;;;;;11.90;65.83;100964.19;18427186;32;20680;-57
2022/09/21 06:03:27;;;;;;;0.30;0.30;;;;;;;11.97;65.12;100982.50;18430185;32;20460;-57
2022/09/21 06:13:31;;;;;;;0.40;0.40;;;;;;;14.37;59.54;100977.31;18489639;32;20114;-58
2022/09/21 06:23:35;;;;;;;0.22;0.22;;;;;;;16.53;53.58;100971.91;18477494;32;20115;-58
2022/09/21 06:33:39;;;;;;;0.20;0.20;;;;;;;16.97;50.65;100982.50;18435113;32;20104;-57
2022/09/21 06:43:48;;;;;;;0.30;0.30;;;;;;;16.91;51.26;100974.75;18436367;32;20441;-57
2022/09/21 06:53:56;;;;;;;0.20;0.20;;;;;;;16.76;51.26;100971.50;18436160;32;20122;-57
2022/09/21 07:03:59;;;;;;;0.20;0.20;;;;;;;17.46;49.60;100982.47;18474119;32;20388;-58
2022/09/21 07:14:04;;;;;;;0.30;0.30;;;;;;;18.58;46.42;100985.09;18493071;32;20142;-57
2022/09/21 07:24:07;;;;;;;0.55;0.37;;;;;;;18.47;45.80;100987.16;18496365;32;20483;-57
2022/09/21 07:34:16;;;;;;;0.20;0.20;;;;;;;18.67;44.72;100984.84;18497799;32;20129;-57
2022/09/21 07:44:19;;;;;;;0.22;0.22;;;;;;;19.22;43.71;100976.31;18494608;32;20148;-58
2022/09/21 07:54:23;;;;;;;0.20;0.20;;;;;;;19.23;43.47;100972.75;18496436;32;20198;-57
2022/09/21 08:04:26;;;;;;;0.25;0.25;;;;;;;18.26;45.87;100992.09;18496841;32;20151;-58
2022/09/21 08:14:31;;;;;;;0.20;0.20;;;;;;;18.74;46.42;100984.69;18496383;32;20118;-57
2022/09/21 08:24:34;;;;;;;0.30;0.30;;;;;;;18.02;47.25;100986.47;18495959;32;20144;-57
2022/09/21 08:34:39;;;;;;;0.20;0.20;;;;;;;18.30;45.07;101002.56;18494977;32;20109;-57
2022/09/21 08:44:45;;;;;;;0.20;0.20;;;;;;;18.97;43.72;100992.00;18494738;32;20412;-57
2022/09/21 08:54:54;;;;;;;0.20;0.20;;;;;;;19.45;41.32;100985.38;18480500;32;20432;-57
2022/09/21 09:05:05;;;;;;;0.32;0.32;;;;;;;19.92;40.63;100984.81;18493923;32;20088;-57
2022/09/21 09:15:22;;;;;;;0.10;0.10;;;;;;;20.23;38.90;100985.63;18493560;32;20089;-57
2022/09/21 09:25:35;;;;;;;0.10;0.10;;;;;;;20.45;38.97;100988.41;18493063;32;20097;-57
2022/09/21 09:35:46;;;;;;;0.10;0.10;;;;;;;21.14;37.65;100981.56;18494005;32;20096;-58
2022/09/21 09:45:56;;;;;;;0.10;0.10;;;;;;;21.28;38.62;100974.88;18494245;32;20089;-57
2022/09/21 09:56:01;;;;;;;0.10;0.10;;;;;;;20.47;37.78;100980.38;18420026;32;20111;-57
2022/09/21 10:06:04;;;;;;;0.10;0.10;;;;;;;20.26;39.71;100974.91;18486323;32;20088;-57
2022/09/21 10:16:12;;;;;;;0.10;0.10;;;;;;;20.30;38.54;100963.28;18498615;32;20408;-57
2022/09/21 10:26:17;;;;;;;0.43;0.30;;;;;;;20.35;40.20;100963.13;18486019;32;20455;-58
2022/09/21 10:36:31;;;;;;;0.00;0.00;;;;;;;21.08;38.70;100965.87;18495654;32;20145;-57
2022/09/21 10:46:35;;;;;;;0.10;0.10;;;;;;;22.00;36.96;100939.28;18497700;32;20185;-57
2022/09/21 10:56:51;;;;;;;0.10;0.10;;;;;;;21.55;35.67;100954.34;18498215;32;20092;-57
2022/09/21 11:07:02;;;;;;;0.10;0.10;;;;;;;21.39;36.83;100945.25;18484179;32;20554;-57
2022/09/21 11:17:13;;;;;;;0.10;0.10;;;;;;;21.72;35.88;100923.62;18499502;32;20092;-57
2022/09/21 11:27:21;;;;;;;0.10;0.10;;;;;;;20.97;35.89;100936.22;18496816;32;20111;-57
2022/09/21 11:37:40;;;;;;;0.10;0.10;;;;;;;20.80;37.68;100927.06;18449083;32;20717;-57
2022/09/21 11:47:59;;;;;;;0.10;0.10;;;;;;;21.48;35.55;100900.63;18489821;32;20179;-58
2022/09/21 11:58:09;;;;;;;0.35;0.35;;;;;;;20.69;37.80;100905.38;18495824;32;20108;-57
2022/09/21 12:08:49;;;;;;;0.10;0.10;;;;;;;21.06;38.30;100896.09;18478195;32;20123;-58
2022/09/21 12:19:00;;;;;;;0.20;0.20;;;;;;;21.48;35.09;100871.41;18488815;32;20096;-58
2022/09/21 12:29:06;;;;;;;0.20;0.20;;;;;;;21.03;37.20;100869.62;18491703;32;20106;-58
2022/09/21 12:39:18;;;;;;;0.13;0.13;;;;;;;20.55;35.95;100871.41;18439445;32;20081;-57
2022/09/21 12:49:24;;;;;;;0.10;0.10;;;;;;;21.25;37.16;100869.66;18465674;32;20112;-58
2022/09/21 12:59:35;;;;;;;0.10;0.10;;;;;;;21.79;34.35;100858.69;18438581;32;20077;-58
2022/09/21 13:09:41;;;;;;;0.10;0.10;;;;;;;21.63;36.39;100846.00;18462716;32;20096;-57
2022/09/21 13:19:56;;;;;;;0.10;0.10;;;;;;;22.30;33.95;100844.97;18419011;32;20108;-57
2022/09/21 13:30:28;;;;;;;0.10;0.10;;;;;;;22.63;32.93;100840.91;18415845;32;20093;-57
2022/09/21 13:40:34;;;;;;;0.10;0.10;;;;;;;21.87;31.90;100839.75;18456900;32;20108;-58
2022/09/21 13:50:40;;;;;;;0.10;0.10;;;;;;;22.24;33.07;100837.25;18470676;32;20175;-58
2022/09/21 14:00:51;;;;;;;0.00;0.00;;;;;;;22.38;31.28;100818.91;18471499;32;20449;-58
2022/09/21 14:10:57;;;;;;;0.10;0.10;;;;;;;21.61;33.83;100823.94;18422738;32;20646;-58
2022/09/21 14:21:18;;;;;;;0.10;0.10;;;;;;;22.02;33.01;100825.81;18425681;32;20077;-58
2022/09/21 14:31:26;;;;;;;0.10;0.10;;;;;;;22.17;33.54;100818.94;18424165;32;20108;-58
2022/09/21 14:41:37;;;;;;;0.52;0.30;;;;;;;21.61;31.60;100839.00;18422699;32;20149;-58
2022/09/21 14:51:42;;;;;;;;;;;;;;;21.02;33.23;100833.41;18429493;32;20094;-58
2022/09/21 15:01:58;;;;;;;0.10;0.10;;;;;;;20.92;34.76;100835.56;18432565;32;20379;-58
2022/09/21 15:12:10;;;;;;;0.10;0.10;;;;;;;20.82;35.77;100834.13;18470106;32;20117;-58
2022/09/21 15:22:18;;;;;;;0.10;0.10;;;;;;;20.53;35.38;100831.69;18480512;32;20077;-58
2022/09/21 15:32:28;;;;;;;0.20;0.20;;;;;;;20.48;36.26;100837.16;18496401;32;20151;-57
2022/09/21 15:42:35;;;;;;;0.10;0.10;;;;;;;20.18;36.51;100841.78;18493358;32;20084;-57
2022/09/21 15:52:41;;;;;;;0.20;0.20;;;;;;;19.73;37.08;100856.53;18496999;32;20116;-57
2022/09/21 16:03:03;;;;;;;0.20;0.20;;;;;;;19.59;36.82;100865.81;18485485;32;214353;-58
2022/09/21 16:23:38;;;;;;;0.20;0.20;;;;;;;18.97;38.88;100886.19;18484707;32;20092;-56
2022/09/21 16:33:43;;;;;;;0.55;0.52;;;;;;;18.78;40.25;100888.50;18455184;32;20096;-56
2022/09/21 16:43:49;;;;;;;0.20;0.20;;;;;;;18.49;40.91;100901.63;18487144;32;20395;-56
2022/09/21 16:53:52;;;;;;;0.20;0.20;;;;;;;18.29;41.40;100910.97;18484520;32;20515;-57
2022/09/21 17:03:57;;;;;;;0.20;0.20;;;;;;;18.13;41.86;100917.56;18428840;32;20119;-57
2022/09/21 17:14:04;;;;;;;0.30;0.30;;;;;;;17.68;43.07;100921.25;18478233;32;20093;-57
2022/09/21 17:24:09;;;;;;;0.30;0.30;;;;;;;17.63;43.30;100918.72;18491679;32;20088;-57
2022/09/21 17:34:14;;;;;;;0.30;0.30;;;;;;;17.47;43.97;100939.34;18494553;32;20115;-57
2022/09/21 17:44:38;;;;;;;0.20;0.20;;;;;;;17.38;44.52;100955.37;18494152;32;20101;-56
2022/09/21 17:54:42;;;;;;;0.20;0.20;;;;;;;17.12;45.06;100964.69;18493620;32;20084;-56
2022/09/21 18:04:47;;;;;;;0.40;0.40;;;;;;;17.05;45.54;100974.50;18476897;32;20381;-56
2022/09/21 18:14:56;;;;;;;0.30;0.30;;;;;;;16.80;46.62;100987.28;18490067;32;20099;-57
2022/09/21 18:25:01;;;;;;;0.22;0.22;;;;;;;16.75;46.95;100992.63;18495598;32;20093;-57
2022/09/21 18:35:16;;;;;;;0.37;0.37;;;;;;;16.68;47.18;100999.75;18485115;32;20096;-57
2022/09/21 18:45:23;;;;;;;0.32;0.32;;;;;;;16.51;48.12;101005.34;18482464;32;20609;-57
2022/09/21 18:55:30;;;;;;;0.70;0.70;;;;;;;16.04;50.66;101005.22;18493312;32;20107;-57
2022/09/21 19:05:37;;;;;;;0.30;0.30;;;;;;;15.54;50.87;101013.78;18476084;32;20105;-57
2022/09/21 19:15:46;;;;;;;0.40;0.40;;;;;;;15.24;52.07;101018.53;18496656;32;20080;-57
2022/09/21 19:26:10;;;;;;;0.40;0.40;;;;;;;15.06;52.36;101017.84;18496073;32;20203;-57
2022/09/21 19:36:14;;;;;;;0.40;0.40;;;;;;;14.54;54.12;101030.59;18495570;32;20156;-57
2022/09/21 19:46:28;;;;;;;0.40;0.40;;;;;;;14.16;55.10;101021.25;18482872;32;20100;-57
2022/09/21 20:07:02;;;;;;;0.28;0.28;;;;;;;13.48;56.49;101024.28;18465925;32;20123;-56
2022/09/21 20:17:09;;;;;;;0.30;0.30;;;;;;;13.03;58.89;101020.03;18486956;32;20114;-57
2022/09/21 20:27:23;;;;;;;0.30;0.30;;;;;;;12.83;59.02;101023.56;18479066;32;20084;-57
2022/09/21 20:37:29;;;;;;;0.30;0.30;;;;;;;12.73;59.63;101032.31;18491523;32;20416;-57
2022/09/21 20:47:33;;;;;;;0.50;0.50;;;;;;;12.60;59.64;101034.06;18492806;32;20460;-57
2022/09/21 20:57:37;;;;;;;0.40;0.40;;;;;;;12.35;60.40;101040.16;18493619;32;20191;-56
2022/09/21 21:07:42;;;;;;;0.50;0.50;;;;;;;12.09;61.36;101044.47;18473883;32;20175;-57
2022/09/21 21:17:48;;;;;;;0.50;0.50;;;;;;;11.89;61.98;101050.50;18495758;32;20369;-57
2022/09/21 21:27:56;;;;;;;0.40;0.40;;;;;;;11.63;62.03;101030.37;18495121;32;20104;-56
2022/09/21 21:37:59;;;;;;;0.68;0.68;;;;;;;11.50;62.14;101038.19;18494873;32;20162;-56
2022/09/21 21:48:04;;;;;;;1.00;1.00;;;;;;;11.43;62.62;101027.66;18451405;32;20106;-57
2022/09/21 21:58:07;;;;;;;0.50;0.50;;;;;;;11.19;62.98;101029.31;18466806;32;20181;-57
2022/09/21 22:08:11;;;;;;;0.43;0.43;;;;;;;11.20;63.16;101034.56;18422278;32;20468;-56
2022/09/21 22:18:14;;;;;;;0.60;0.60;;;;;;;11.20;62.03;101034.56;18469691;32;20369;-56
2022/09/21 22:28:19;;;;;;;0.47;0.47;;;;;;;11.08;62.54;101037.06;18436488;32;20103;-56
2022/09/21 22:38:22;;;;;;;1.67;1.52;;;;;;;11.00;63.01;101031.81;18436958;32;20179;-56
2022/09/21 22:48:26;;;;;;;0.60;0.60;;;;;;;10.74;63.04;101026.44;18436212;32;20381;-56
2022/09/21 22:58:30;;;;;;;0.50;0.50;;;;;;;10.62;62.97;101017.66;18421208;32;20159;-56
2022/09/21 23:08:34;;;;;;;0.55;0.55;;;;;;;10.62;63.45;101007.22;18434566;32;20088;-56
2022/09/21 23:18:38;;;;;;;0.50;0.50;;;;;;;10.38;63.49;101016.53;18434924;32;20101;-56
2022/09/21 23:28:44;;;;;;;0.45;0.45;;;;;;;10.40;63.33;101006.13;18434164;32;20088;-56
2022/09/21 23:38:48;;;;;;;0.50;0.50;;;;;;;10.07;63.69;101011.06;18434349;32;20111;-56
2022/09/21 23:48:53;;;;;;;0.40;0.40;;;;;;;10.12;63.49;101017.19;18433707;32;20146;-56
2022/09/21 23:58:57;;;;;;;0.50;0.50;;;;;;;9.83;64.51;101022.97;18433721;32;20491;-56
